Time;durP1;ratioP1;P1;durP2;ratioP2;P2;SDS_P1;SDS_P2;PMS_P1;PMS_P2;Temp;Humidity;BMP_temperature;BMP_pressure;BME280_temperature;BME280_humidity;BME280_pressure;Samples;Min_cycle;Max_cycle;Signal;HPM_P1;HPM_P2
2023/03/11 00:00:26;;;;;;;2.40;2.30;;;;;;;-0.95;100.00;99891.22;6096409;23;20096;-82
2023/03/11 00:02:55;;;;;;;2.58;2.47;;;;;;;-0.72;100.00;99871.91;6058743;23;20797;-81
2023/03/11 00:05:26;;;;;;;2.30;2.20;;;;;;;0.43;100.00;100075.09;6099661;23;20243;-81
2023/03/11 00:07:55;;;;;;;2.30;2.20;;;;;;;0.70;100.00;100130.44;6057698;23;20464;-79
2023/03/11 00:10:24;;;;;;;2.30;2.20;;;;;;;0.63;100.00;100121.16;6052973;23;20057;-81
2023/03/11 00:12:53;;;;;;;2.92;2.72;;;;;;;-0.04;100.00;100028.69;6052622;23;20185;-79
2023/03/11 00:15:20;;;;;;;4.35;2.72;;;;;;;-0.59;100.00;99942.09;6078227;23;20103;-80
2023/03/11 00:17:47;;;;;;;4.18;3.75;;;;;;;-0.06;100.00;100012.38;6079696;23;20047;-79
2023/03/11 00:20:23;;;;;;;2.45;2.35;;;;;;;0.65;100.00;100133.13;6059180;23;20088;-79
2023/03/11 00:22:50;;;;;;;2.80;2.60;;;;;;;0.09;100.00;100044.78;6049575;23;20047;-79
2023/03/11 00:25:18;;;;;;;2.63;2.53;;;;;;;0.10;100.00;100046.47;6078544;23;20030;-80
2023/03/11 00:27:45;;;;;;;2.38;2.28;;;;;;;-0.02;100.00;100037.25;6051569;23;20029;-80
2023/03/11 00:30:13;;;;;;;2.88;2.70;;;;;;;-0.14;100.00;100035.78;6079842;23;20431;-79
2023/03/11 00:32:40;;;;;;;2.30;2.20;;;;;;;-1.03;100.00;99893.06;6076325;23;20518;-80
2023/03/11 00:35:08;;;;;;;2.60;2.50;;;;;;;-0.82;100.00;99971.72;6078185;23;20333;-79
2023/03/11 00:37:35;;;;;;;2.50;2.40;;;;;;;0.45;100.00;100119.78;6075004;23;20204;-79
2023/03/11 00:40:01;;;;;;;2.40;2.30;;;;;;;0.54;100.00;100154.00;6052068;23;20042;-80
2023/03/11 00:42:28;;;;;;;3.15;2.95;;;;;;;0.50;100.00;100160.13;6080654;23;20026;-80
2023/03/11 00:44:54;;;;;;;2.30;2.20;;;;;;;0.10;100.00;100096.38;6060631;23;20042;-81
2023/03/11 00:47:20;;;;;;;2.33;2.22;;;;;;;-2.52;100.00;99651.25;6072559;23;20034;-80
2023/03/11 00:49:47;;;;;;;2.40;2.30;;;;;;;-0.02;100.00;100088.84;6059537;23;20104;-80
2023/03/11 00:52:13;;;;;;;3.05;2.95;;;;;;;-0.96;100.00;99923.00;6078577;23;20671;-79
2023/03/11 00:54:40;;;;;;;2.40;2.30;;;;;;;-0.03;100.00;100072.50;6029109;23;20067;-82
2023/03/11 00:57:06;;;;;;;2.38;2.28;;;;;;;-0.69;100.00;99962.03;6078387;23;20049;-81
2023/03/11 00:59:34;;;;;;;2.70;2.60;;;;;;;0.32;100.00;100121.72;6077252;23;20022;-81
2023/03/11 01:02:00;;;;;;;2.40;2.30;;;;;;;0.62;100.00;100166.75;6082096;23;20181;-80
2023/03/11 01:04:27;;;;;;;2.30;2.20;;;;;;;0.16;100.00;100108.28;6082417;23;20026;-79
2023/03/11 01:06:53;;;;;;;3.08;2.97;;;;;;;0.02;100.00;100079.31;6079713;23;20381;-79
2023/03/11 01:09:20;;;;;;;2.25;2.15;;;;;;;-0.39;100.00;100026.78;6076219;23;20091;-80
2023/03/11 01:11:46;;;;;;;4.00;3.63;;;;;;;-0.11;100.00;100079.53;6058743;23;20195;-79
2023/03/11 01:14:13;;;;;;;2.58;2.47;;;;;;;-0.44;100.00;100021.69;6078101;23;20100;-81
2023/03/11 01:16:39;;;;;;;3.50;3.30;;;;;;;-0.06;100.00;100094.94;6075753;23;20018;-80
2023/03/11 01:19:06;;;;;;;2.65;2.55;;;;;;;-0.30;100.00;100050.69;6074364;23;20048;-79
2023/03/11 01:21:32;;;;;;;2.30;2.20;;;;;;;-1.09;100.00;99931.81;6053056;23;20193;-80
2023/03/11 01:23:59;;;;;;;2.60;2.50;;;;;;;-1.02;100.00;99964.31;6071206;23;20037;-80
2023/03/11 01:26:25;;;;;;;2.50;2.40;;;;;;;-0.36;100.00;100052.50;6074440;23;20022;-80
2023/03/11 01:28:52;;;;;;;2.42;2.33;;;;;;;-0.30;100.00;100067.84;6060093;23;20588;-79
2023/03/11 01:31:18;;;;;;;2.40;2.30;;;;;;;-0.64;100.00;100037.53;6073367;23;20290;-80
2023/03/11 01:33:45;;;;;;;2.85;2.70;;;;;;;0.37;100.00;100205.09;6077869;23;20025;-80
2023/03/11 01:36:13;;;;;;;13.30;2.50;;;;;;;-0.36;100.00;100088.59;6074479;23;20014;-80
2023/03/11 01:38:40;;;;;;;3.08;2.80;;;;;;;-2.48;100.00;99774.47;6072909;23;20177;-80
2023/03/11 01:41:10;;;;;;;2.42;2.33;;;;;;;-0.33;100.00;100129.81;6070828;23;20268;-78
2023/03/11 01:43:38;;;;;;;2.63;2.53;;;;;;;0.13;100.00;100206.38;6074880;23;20041;-80
2023/03/11 01:46:10;;;;;;;2.40;2.30;;;;;;;0.08;100.00;100201.31;6077281;23;20910;-80
2023/03/11 01:48:37;;;;;;;2.30;2.20;;;;;;;-0.37;100.00;100143.63;6059253;23;20046;-79
2023/03/11 01:51:06;;;;;;;2.20;2.10;;;;;;;-0.46;100.00;100129.13;6072048;23;20022;-79
2023/03/11 01:53:33;;;;;;;3.20;3.05;;;;;;;-0.78;100.00;100114.16;6073719;23;20060;-80
2023/03/11 01:56:01;;;;;;;16.00;2.70;;;;;;;-0.43;100.00;100154.88;6074931;23;20030;-81
2023/03/11 01:58:34;;;;;;;3.72;3.42;;;;;;;-1.58;100.00;99973.75;6051302;23;21605;-81
2023/03/11 02:01:03;;;;;;;;;;;;;;;-0.11;100.00;100216.22;6075611;23;20050;-79
2023/03/11 02:03:35;;;;;;;2.30;2.20;;;;;;;-0.15;100.00;100217.16;6052914;23;20130;-80
2023/03/11 02:06:06;;;;;;;2.40;2.30;;;;;;;-0.94;100.00;100092.94;6048281;23;20050;-80
2023/03/11 02:08:33;;;;;;;2.65;2.55;;;;;;;-1.16;100.00;100070.09;6056869;23;20735;-79
2023/03/11 02:11:02;;;;;;;2.50;2.40;;;;;;;-0.79;100.00;100120.22;6079084;23;20090;-81
2023/03/11 02:13:30;;;;;;;2.63;2.53;;;;;;;-0.69;100.00;100142.38;6082479;23;20017;-81
2023/03/11 02:15:59;;;;;;;2.60;2.50;;;;;;;-1.47;100.00;100002.75;6059522;23;20034;-80
2023/03/11 02:18:26;;;;;;;2.60;2.50;;;;;;;-0.72;100.00;100124.38;6080104;23;20060;-81
2023/03/11 02:21:19;;;;;;;7.13;3.03;;;;;;;-0.17;100.00;100218.06;6079547;23;20638;-82
2023/03/11 02:24:12;;;;;;;2.70;2.60;;;;;;;-0.61;100.00;100167.16;6053983;23;20079;-80
2023/03/11 02:26:48;;;;;;;6.70;2.65;;;;;;;-0.27;100.00;100207.03;6082823;23;20026;-80
2023/03/11 02:29:14;;;;;;;2.08;1.98;;;;;;;-1.45;100.00;100019.03;6062256;23;20421;-79
2023/03/11 02:31:42;;;;;;;2.65;2.55;;;;;;;-0.29;100.00;100224.25;6089379;23;20089;-79
2023/03/11 02:34:15;;;;;;;2.38;2.28;;;;;;;-0.78;100.00;100168.28;6081380;23;20635;-80
2023/03/11 02:36:42;;;;;;;2.22;2.13;;;;;;;-1.16;100.00;100111.28;6077837;23;20024;-79
2023/03/11 02:39:08;;;;;;;2.40;2.30;;;;;;;-1.73;100.00;100005.69;6076269;23;20015;-78
2023/03/11 02:41:42;;;;;;;2.30;2.20;;;;;;;-0.45;100.00;100215.91;6079038;23;20057;-80
2023/03/11 02:44:12;;;;;;;2.45;2.35;;;;;;;-0.94;100.00;100160.78;6054440;23;20221;-79
2023/03/11 02:46:41;;;;;;;2.25;2.15;;;;;;;-0.54;100.00;100227.22;6083690;23;20121;-79
2023/03/11 02:49:08;;;;;;;2.40;2.30;;;;;;;-0.97;100.00;100163.38;6052757;23;20089;-80
2023/03/11 02:51:35;;;;;;;2.28;2.17;;;;;;;-1.08;100.00;100152.41;6079962;23;20349;-78
2023/03/11 02:54:04;;;;;;;2.30;2.20;;;;;;;-0.71;100.00;100213.72;6057585;23;20193;-80
2023/03/11 02:56:30;;;;;;;2.25;2.15;;;;;;;-1.75;100.00;100021.13;6075101;23;20026;-79
2023/03/11 02:58:57;;;;;;;2.67;2.58;;;;;;;-2.41;100.00;99932.81;6056227;23;20050;-78
2023/03/11 03:01:23;;;;;;;2.35;2.25;;;;;;;-0.69;100.00;100225.69;6056132;23;20033;-79
2023/03/11 03:03:49;;;;;;;2.30;2.20;;;;;;;-1.36;100.00;100110.69;6077118;23;20272;-79
2023/03/11 03:06:17;;;;;;;2.30;2.20;;;;;;;-1.22;100.00;100156.00;6076418;23;20028;-81
2023/03/11 03:08:43;;;;;;;5.47;2.53;;;;;;;-0.67;100.00;100229.09;6076203;23;20018;-79
2023/03/11 03:11:10;;;;;;;2.20;2.10;;;;;;;-1.89;100.00;100025.59;6080281;23;20020;-79
2023/03/11 03:13:36;;;;;;;2.70;2.60;;;;;;;-1.23;100.00;100143.13;6076371;23;20033;-79
2023/03/11 03:16:03;;;;;;;2.50;2.40;;;;;;;-0.76;100.00;100228.38;6091602;23;20021;-80
2023/03/11 03:18:30;;;;;;;2.45;2.35;;;;;;;-1.02;100.00;100184.06;6075355;23;20021;-79
2023/03/11 03:20:56;;;;;;;2.83;2.63;;;;;;;-1.65;100.00;100101.59;6060489;23;20030;-79
2023/03/11 03:23:22;;;;;;;2.58;2.30;;;;;;;-1.78;100.00;100090.63;6078167;23;20026;-79
2023/03/11 03:25:49;;;;;;;2.30;2.20;;;;;;;-1.63;100.00;100103.28;6076167;23;20038;-79
2023/03/11 03:28:15;;;;;;;2.38;2.28;;;;;;;-2.62;100.00;99953.59;6046745;23;20026;-79
2023/03/11 03:30:42;;;;;;;2.20;2.10;;;;;;;-2.13;100.00;100040.44;6077374;23;20542;-80
2023/03/11 03:33:08;;;;;;;2.10;2.00;;;;;;;-2.25;100.00;100032.84;6075378;23;20187;-78
2023/03/11 03:35:39;;;;;;;2.28;2.17;;;;;;;-1.10;100.00;100233.94;6059872;23;20030;-79
2023/03/11 03:38:06;;;;;;;2.30;2.20;;;;;;;-1.11;100.00;100242.53;6077538;23;20026;-79
2023/03/11 03:40:32;;;;;;;2.20;2.10;;;;;;;-2.49;100.00;100029.66;6076225;23;20041;-78
2023/03/11 03:42:59;;;;;;;2.45;2.35;;;;;;;-1.65;100.00;100160.78;6073364;23;20041;-80
2023/03/11 03:45:25;;;;;;;2.83;2.63;;;;;;;-1.18;100.00;100259.78;6053662;23;20029;-79
2023/03/11 03:47:51;;;;;;;2.50;2.40;;;;;;;-2.81;100.00;99997.44;6079577;23;20026;-79
2023/03/11 03:50:18;;;;;;;2.50;2.40;;;;;;;-1.15;100.00;100257.16;6071963;23;20057;-79
2023/03/11 03:52:45;;;;;;;2.55;2.45;;;;;;;-2.66;100.00;100031.56;6060573;23;20350;-78
2023/03/11 03:55:11;;;;;;;2.03;1.92;;;;;;;-2.19;100.00;100104.75;6074151;23;20033;-79
2023/03/11 03:57:38;;;;;;;2.20;2.10;;;;;;;-1.59;100.00;100225.03;6073059;23;20020;-79
2023/03/11 04:00:07;;;;;;;2.30;2.20;;;;;;;-1.38;100.00;100252.28;6070101;23;20030;-80
2023/03/11 04:02:34;;;;;;;2.17;2.08;;;;;;;-1.93;100.00;100185.94;6046230;23;20026;-78
2023/03/11 04:05:00;;;;;;;5.22;2.95;;;;;;;-1.92;100.00;100174.78;6077792;23;20485;-78
2023/03/11 04:07:27;;;;;;;2.28;2.17;;;;;;;-1.79;100.00;100245.81;6051763;23;20021;-81
2023/03/11 04:09:53;;;;;;;2.22;2.13;;;;;;;-3.25;100.00;99973.00;6077147;23;20040;-80
2023/03/11 04:12:20;;;;;;;2.50;2.40;;;;;;;-2.48;100.00;100103.31;6072213;23;20029;-79
2023/03/11 04:14:47;;;;;;;2.13;2.03;;;;;;;-2.99;100.00;100007.00;6056506;23;20026;-79
2023/03/11 04:17:16;;;;;;;2.30;2.20;;;;;;;-1.37;100.00;100277.13;6077876;23;20025;-80
2023/03/11 04:19:43;;;;;;;2.38;2.28;;;;;;;-1.52;100.00;100260.16;6076926;23;20246;-79
2023/03/11 04:22:09;;;;;;;2.30;2.20;;;;;;;-2.25;100.00;100159.63;6026087;23;20075;-81
2023/03/11 04:24:36;;;;;;;2.20;2.10;;;;;;;-2.41;100.00;100127.22;6070578;23;20119;-79
2023/03/11 04:27:02;;;;;;;2.58;2.47;;;;;;;-2.76;100.00;100089.00;6077311;23;20327;-80
2023/03/11 04:29:29;;;;;;;2.35;2.25;;;;;;;-2.32;100.00;100136.59;6080299;23;20037;-79
2023/03/11 04:31:55;;;;;;;2.20;2.10;;;;;;;-2.00;100.00;100195.44;6058033;23;20249;-79
2023/03/11 04:34:22;;;;;;;2.35;2.25;;;;;;;-1.95;100.00;100201.38;6084593;23;20345;-78
2023/03/11 04:36:52;;;;;;;2.20;2.10;;;;;;;-1.73;100.00;100226.91;6076486;23;20769;-80
2023/03/11 04:39:19;;;;;;;2.50;2.40;;;;;;;-2.28;100.00;100146.81;6059890;23;20028;-82
2023/03/11 04:41:45;;;;;;;2.97;2.80;;;;;;;-1.91;100.00;100202.19;6076400;23;20089;-79
2023/03/11 04:44:12;;;;;;;2.22;2.13;;;;;;;-1.63;100.00;100265.38;6052669;23;20347;-81
2023/03/11 04:46:38;;;;;;;2.28;2.17;;;;;;;-2.09;100.00;100190.34;6076950;23;20008;-79
2023/03/11 04:49:04;;;;;;;2.30;2.20;;;;;;;-1.92;100.00;100244.22;6079701;23;20037;-79
2023/03/11 04:51:31;;;;;;;2.20;2.10;;;;;;;-1.77;100.00;100232.94;6080031;23;20025;-79
2023/03/11 04:54:00;;;;;;;2.50;2.40;;;;;;;-1.46;100.00;100303.00;6056304;23;20173;-80
2023/03/11 04:56:26;;;;;;;2.30;2.20;;;;;;;-1.56;100.00;100280.75;6041984;23;20051;-81
2023/03/11 04:58:52;;;;;;;2.28;2.17;;;;;;;-1.77;100.00;100245.81;6043399;23;20214;-81
2023/03/11 05:01:19;;;;;;;2.30;2.20;;;;;;;-1.69;100.00;100264.59;6049110;23;20038;-79
2023/03/11 05:03:46;;;;;;;2.30;2.20;;;;;;;-2.65;100.00;100094.88;6048431;23;20599;-79
2023/03/11 05:06:12;;;;;;;2.30;2.20;;;;;;;-2.11;100.00;100213.50;6034813;23;20038;-81
2023/03/11 05:08:39;;;;;;;2.22;2.13;;;;;;;-2.89;100.00;100035.13;6051700;23;20448;-79
2023/03/11 05:11:08;;;;;;;2.30;2.20;;;;;;;-1.12;100.00;100334.41;6050459;23;20014;-80
2023/03/11 05:13:34;;;;;;;2.03;1.92;;;;;;;-1.78;100.00;100251.78;6050055;23;20105;-79
2023/03/11 05:16:01;;;;;;;2.50;2.40;;;;;;;-2.96;100.00;100030.09;6052781;23;20037;-79
2023/03/11 05:18:28;;;;;;;2.40;2.30;;;;;;;-3.23;100.00;99993.47;6049649;23;20059;-80
2023/03/11 05:20:55;;;;;;;2.40;2.30;;;;;;;-1.75;100.00;100246.63;6023325;23;20037;-79
2023/03/11 05:23:21;;;;;;;2.30;2.20;;;;;;;-1.18;100.00;100336.16;6048977;23;20054;-82
2023/03/11 05:25:48;;;;;;;2.30;2.20;;;;;;;-2.34;100.00;100175.16;6048690;23;20102;-80
2023/03/11 05:28:14;;;;;;;2.20;2.10;;;;;;;-3.02;100.00;100039.53;6051781;23;20097;-80
2023/03/11 05:30:40;;;;;;;2.33;2.22;;;;;;;-2.47;100.00;100130.69;6052988;23;20089;-79
2023/03/11 05:33:07;;;;;;;2.53;2.42;;;;;;;-2.01;100.00;100224.56;6051700;23;20056;-77
2023/03/11 05:35:34;;;;;;;2.60;2.50;;;;;;;-1.39;100.00;100306.34;6050636;23;20014;-80
2023/03/11 05:38:02;;;;;;;2.35;2.25;;;;;;;-2.39;100.00;100145.19;6053433;23;20101;-80
2023/03/11 05:40:29;;;;;;;2.30;2.20;;;;;;;-1.18;100.00;100347.34;6054404;23;20030;-80
2023/03/11 05:42:55;;;;;;;2.15;2.05;;;;;;;-2.02;100.00;100210.88;6055746;23;20055;-81
2023/03/11 05:45:21;;;;;;;2.25;2.15;;;;;;;-1.87;100.00;100234.72;6029144;23;20109;-80
2023/03/11 05:47:48;;;;;;;2.25;2.15;;;;;;;-2.48;100.00;100131.56;6059795;23;20109;-81
2023/03/11 05:50:14;;;;;;;2.20;2.10;;;;;;;-1.09;100.00;100364.41;6030776;23;20030;-80
2023/03/11 05:52:40;;;;;;;2.22;2.13;;;;;;;-1.10;100.00;100361.00;6053217;23;20515;-80
2023/03/11 05:55:11;;;;;;;2.40;2.30;;;;;;;-2.54;100.00;100111.06;6069751;23;20451;-79
2023/03/11 05:57:38;;;;;;;2.38;2.28;;;;;;;-1.06;100.00;100365.25;6056558;23;20085;-81
2023/03/11 06:00:10;;;;;;;2.40;2.30;;;;;;;-1.07;100.00;100363.50;6058772;23;20450;-79
2023/03/11 06:02:38;;;;;;;;;;;;;;;-1.07;100.00;100370.41;6063457;23;20083;-79
2023/03/11 06:05:06;;;;;;;2.20;2.10;;;;;;;-1.10;100.00;100363.56;6082284;23;19971;-79
2023/03/11 06:07:35;;;;;;;2.30;2.20;;;;;;;-1.05;100.00;100391.84;6060137;23;20043;-78
2023/03/11 06:10:03;;;;;;;2.25;2.15;;;;;;;-1.81;100.00;100250.97;6091564;23;20052;-79
2023/03/11 06:12:33;;;;;;;2.50;2.40;;;;;;;-1.11;100.00;100361.84;6082847;23;20048;-78
2023/03/11 06:14:59;;;;;;;2.38;2.28;;;;;;;-1.80;100.00;100282.69;6060777;23;20550;-78
2023/03/11 06:17:26;;;;;;;2.42;2.33;;;;;;;-2.18;100.00;100196.44;6079105;23;20401;-80
2023/03/11 06:19:55;;;;;;;2.05;1.95;;;;;;;-2.26;100.00;100190.50;6080695;23;20054;-79
2023/03/11 06:22:21;;;;;;;2.33;2.22;;;;;;;-1.36;100.00;100322.63;6050675;23;20278;-78
2023/03/11 06:24:48;;;;;;;2.38;2.28;;;;;;;-1.64;100.00;100310.00;6076305;23;20064;-80
2023/03/11 06:27:14;;;;;;;2.28;2.17;;;;;;;-1.63;100.00;100274.81;6078466;23;20028;-81
2023/03/11 06:29:41;;;;;;;2.60;2.50;;;;;;;-1.02;100.00;100371.22;6058604;23;20479;-81
2023/03/11 06:32:07;;;;;;;2.75;2.65;;;;;;;-0.77;100.00;100407.03;6079396;23;20078;-79
2023/03/11 06:34:33;;;;;;;2.50;2.40;;;;;;;-1.12;100.00;100391.06;6104681;23;20025;-78
2023/03/11 06:37:00;;;;;;;2.67;2.58;;;;;;;-1.14;100.00;100376.47;6101987;23;20029;-77
2023/03/11 06:39:26;;;;;;;2.33;2.22;;;;;;;-1.78;100.00;100251.78;6103256;23;20022;-78
2023/03/11 06:41:53;;;;;;;2.50;2.40;;;;;;;-1.88;100.00;100246.75;6109442;23;20048;-78
2023/03/11 06:44:19;;;;;;;3.15;3.05;;;;;;;-0.83;100.00;100429.38;6072484;23;20508;-79
2023/03/11 06:46:45;;;;;;;2.35;2.25;;;;;;;-1.38;100.00;100336.34;6092422;23;20100;-78
2023/03/11 06:49:12;;;;;;;2.63;2.53;;;;;;;-1.44;100.00;100325.25;6057291;23;20126;-79
2023/03/11 06:51:38;;;;;;;2.70;2.60;;;;;;;-1.94;100.00;100257.09;6082453;23;20050;-78
2023/03/11 06:54:05;;;;;;;2.38;2.28;;;;;;;-4.03;100.00;99938.44;6079266;23;20105;-81
2023/03/11 06:56:31;;;;;;;2.58;2.47;;;;;;;-1.39;100.00;100376.69;6085655;23;20439;-81
2023/03/11 06:58:58;;;;;;;2.50;2.40;;;;;;;-1.99;100.00;100307.69;6027955;23;20368;-79
2023/03/11 07:01:26;;;;;;;2.40;2.30;;;;;;;-1.57;100.00;100325.38;6084208;23;20021;-81
2023/03/11 07:03:53;;;;;;;14.73;3.05;;;;;;;-1.98;100.00;100263.13;6083532;23;20282;-78
2023/03/11 07:06:27;;;;;;;2.40;2.30;;;;;;;-2.22;100.00;100231.59;6089521;23;20018;-80
2023/03/11 07:08:53;;;;;;;2.20;2.10;;;;;;;-0.99;100.00;100443.28;6082734;23;20014;-80
2023/03/11 07:11:22;;;;;;;3.10;2.90;;;;;;;-0.58;100.00;100493.59;6060687;23;20023;-78
2023/03/11 07:13:49;;;;;;;2.50;2.40;;;;;;;-1.44;100.00;100401.63;6056379;23;20038;-77
2023/03/11 07:16:19;;;;;;;2.90;2.80;;;;;;;-1.78;100.00;100310.94;6085511;23;20042;-81
2023/03/11 07:18:49;;;;;;;2.90;2.70;;;;;;;-0.40;100.00;100497.72;6077005;23;20036;-77
2023/03/11 07:21:18;;;;;;;2.30;2.20;;;;;;;-0.34;100.00;100507.97;6078630;23;20425;-79
2023/03/11 07:23:48;;;;;;;2.60;2.50;;;;;;;-0.35;100.00;100502.81;6086391;23;20102;-79
2023/03/11 07:26:16;;;;;;;2.40;2.30;;;;;;;-0.27;100.00;100512.16;6060469;23;20018;-78
2023/03/11 07:28:46;;;;;;;2.90;2.80;;;;;;;-0.56;100.00;100494.44;6053238;23;20449;-79
2023/03/11 07:31:16;;;;;;;2.30;2.20;;;;;;;-0.33;100.00;100527.69;6059931;23;20031;-79
2023/03/11 07:33:43;;;;;;;2.30;2.20;;;;;;;-1.07;100.00;100419.31;6061980;23;20030;-77
2023/03/11 07:36:12;;;;;;;2.53;2.42;;;;;;;-0.44;100.00;100491.72;6054266;23;20072;-78
2023/03/11 07:38:39;;;;;;;3.03;2.83;;;;;;;-1.14;100.00;100386.75;6056660;23;20029;-77
2023/03/11 07:41:09;;;;;;;3.13;2.92;;;;;;;-0.20;100.00;100531.03;6078830;23;20520;-79
2023/03/11 07:43:36;;;;;;;2.60;2.50;;;;;;;-3.19;100.00;100094.41;6052380;23;20023;-80
2023/03/11 07:46:10;;;;;;;2.60;2.50;;;;;;;-0.94;100.00;100417.47;6082840;23;20503;-79
2023/03/11 07:48:38;;;;;;;2.85;2.65;;;;;;;-0.07;100.00;100532.56;6057230;23;21025;-79
2023/03/11 07:51:07;;;;;;;2.60;2.50;;;;;;;0.01;100.00;100542.81;6061198;23;20068;-80
2023/03/11 07:53:33;;;;;;;2.50;2.40;;;;;;;0.00;100.00;100517.91;6080753;23;20032;-79
2023/03/11 07:56:00;;;;;;;2.40;2.30;;;;;;;-0.93;100.00;100362.53;6078055;23;20101;-81
2023/03/11 07:58:27;;;;;;;2.75;2.45;;;;;;;-0.67;100.00;100382.84;6082739;23;20061;-81
2023/03/11 08:00:55;;;;;;;2.28;2.17;;;;;;;0.23;100.00;100514.19;6052914;23;20159;-78
2023/03/11 08:03:23;;;;;;;2.70;2.60;;;;;;;-0.67;100.00;100357.09;6084664;23;20030;-80
2023/03/11 08:05:50;;;;;;;2.78;2.67;;;;;;;-0.89;100.00;100316.09;6082223;23;20021;-80
2023/03/11 08:08:19;;;;;;;2.75;2.65;;;;;;;0.31;100.00;100487.38;6077796;23;20062;-80
2023/03/11 08:10:45;;;;;;;5.25;2.55;;;;;;;-0.41;100.00;100356.78;6078317;23;20582;-78
2023/03/11 08:13:12;;;;;;;2.38;2.28;;;;;;;-0.84;100.00;100267.13;6056198;23;20105;-78
2023/03/11 08:15:39;;;;;;;2.53;2.42;;;;;;;0.28;100.00;100422.94;6059048;23;20428;-76
2023/03/11 08:18:05;;;;;;;3.00;2.90;;;;;;;0.94;100.00;100526.94;6082027;23;20544;-80
2023/03/11 08:20:32;;;;;;;2.47;2.38;;;;;;;-0.09;100.00;100355.50;6054287;23;20065;-77
2023/03/11 08:22:58;;;;;;;2.63;2.53;;;;;;;0.39;100.00;100400.38;6080721;23;20183;-75
2023/03/11 08:25:25;;;;;;;3.80;3.33;;;;;;;1.19;100.00;100512.75;6079513;23;20025;-79
2023/03/11 08:27:51;;;;;;;2.60;2.50;;;;;;;0.63;100.00;100397.44;6055459;23;20050;-78
2023/03/11 08:30:18;;;;;;;3.03;2.85;;;;;;;0.30;100.00;100351.47;6056796;23;20040;-78
2023/03/11 08:32:45;;;;;;;8.02;3.25;;;;;;;1.21;100.00;100466.22;6055487;23;20568;-75
2023/03/11 08:35:11;;;;;;;2.72;2.63;;;;;;;1.16;99.94;100458.56;6084598;23;20365;-77
2023/03/11 08:37:38;;;;;;;2.60;2.50;;;;;;;1.46;98.46;100501.97;6055747;23;20089;-77
2023/03/11 08:40:06;;;;;;;2.70;2.60;;;;;;;1.06;96.57;100376.88;6069120;23;20046;-78
2023/03/11 08:42:32;;;;;;;3.30;3.10;;;;;;;1.22;95.51;100394.69;6078116;23;20025;-80
2023/03/11 08:45:02;;;;;;;2.58;2.47;;;;;;;1.30;93.85;100364.38;6063615;23;20021;-80
2023/03/11 08:47:33;;;;;;;3.17;2.97;;;;;;;1.81;92.61;100422.88;6078421;23;20283;-78
2023/03/11 08:49:59;;;;;;;2.83;2.72;;;;;;;0.56;89.91;100229.72;6061512;23;20606;-78
2023/03/11 08:52:25;;;;;;;2.63;2.53;;;;;;;1.63;89.75;100356.84;6053825;23;20022;-77
2023/03/11 08:54:54;;;;;;;4.07;3.83;;;;;;;1.09;88.23;100257.09;6064648;23;20022;-79
2023/03/11 08:57:21;;;;;;;3.17;3.03;;;;;;;0.52;88.44;100186.75;6081703;23;20085;-79
2023/03/11 08:59:47;;;;;;;2.75;2.65;;;;;;;1.68;88.39;100354.97;6064175;23;20252;-80
2023/03/11 09:02:13;;;;;;;2.83;2.72;;;;;;;1.78;87.53;100330.63;6052334;23;20022;-79
2023/03/11 09:04:40;;;;;;;3.00;2.90;;;;;;;1.83;85.52;100331.38;6078511;23;20061;-80
2023/03/11 09:07:06;;;;;;;3.20;2.95;;;;;;;-0.34;85.59;99958.81;6054291;23;20222;-79
2023/03/11 09:09:35;;;;;;;2.92;2.83;;;;;;;2.40;83.52;100385.28;6080207;23;20026;-80
2023/03/11 09:12:03;;;;;;;2.90;2.70;;;;;;;1.76;82.45;100247.88;6079376;23;20034;-79
2023/03/11 09:14:30;;;;;;;2.65;2.55;;;;;;;1.59;80.29;100216.38;6080533;23;20080;-80
2023/03/11 09:16:56;;;;;;;3.15;2.95;;;;;;;1.38;76.90;100062.59;6083218;23;20149;-79
2023/03/11 09:19:23;;;;;;;3.08;2.95;;;;;;;2.25;73.95;100129.34;6085451;23;20030;-80
2023/03/11 09:21:49;;;;;;;2.67;2.58;;;;;;;2.62;73.46;100154.22;6085393;23;20233;-79
2023/03/11 09:24:15;;;;;;;2.90;2.80;;;;;;;2.21;73.10;100082.88;6082582;23;20508;-79
2023/03/11 09:26:42;;;;;;;2.90;2.80;;;;;;;2.46;70.92;100101.16;6085329;23;20030;-81
2023/03/11 09:29:08;;;;;;;2.85;2.75;;;;;;;2.87;69.70;100109.47;6081678;23;20049;-78
2023/03/11 09:31:35;;;;;;;3.95;3.40;;;;;;;2.74;69.03;100050.22;6048940;23;20084;-80
2023/03/11 09:34:01;;;;;;;3.65;3.45;;;;;;;3.46;68.21;100122.31;6077815;23;20116;-80
2023/03/11 09:36:28;;;;;;;4.10;3.70;;;;;;;3.02;63.38;99908.56;6061341;23;20492;-79
2023/03/11 09:38:54;;;;;;;3.30;3.20;;;;;;;3.16;61.49;99873.47;6061456;23;20081;-80
2023/03/11 09:41:49;;;;;;;3.20;3.10;;;;;;;3.97;61.87;99968.31;6077262;23;20026;-80
2023/03/11 09:44:31;;;;;;;3.03;2.92;;;;;;;4.06;59.14;99898.78;6085077;23;20026;-79
2023/03/11 09:47:11;;;;;;;3.10;3.00;;;;;;;4.33;56.85;99863.94;6078141;23;20034;-80
2023/03/11 09:49:57;;;;;;;4.50;3.03;;;;;;;4.67;55.49;99838.31;6081813;23;20081;-79
2023/03/11 09:52:39;;;;;;;3.50;3.30;;;;;;;4.53;56.93;99833.69;6115019;23;20104;-81
2023/03/11 09:55:32;;;;;;;3.13;3.03;;;;;;;4.44;55.14;99771.75;6115869;23;20021;-80
2023/03/11 09:58:07;;;;;;;3.10;3.00;;;;;;;4.46;54.78;99764.72;6091123;23;20040;-81
2023/03/11 10:00:34;;;;;;;3.40;3.30;;;;;;;4.78;54.25;99784.16;6107185;23;20029;-78
2023/03/11 10:03:02;;;;;;;3.10;3.00;;;;;;;3.88;54.89;99667.56;6088454;23;20076;-79
2023/03/11 10:05:29;;;;;;;3.10;3.00;;;;;;;3.89;55.33;99705.59;6093519;23;20034;-79
2023/03/11 10:08:22;;;;;;;3.38;3.28;;;;;;;4.34;56.43;99798.09;6113034;23;20397;-79
2023/03/11 10:11:00;;;;;;;3.85;3.65;;;;;;;4.66;56.07;99871.28;6083789;23;20026;-81
2023/03/11 10:13:38;;;;;;;3.88;3.67;;;;;;;1.75;56.13;99337.44;6087132;23;20389;-79
2023/03/11 10:16:22;;;;;;;3.05;2.95;;;;;;;5.27;55.71;99879.97;6111090;23;20026;-78
2023/03/11 10:19:02;;;;;;;3.47;3.28;;;;;;;4.86;55.15;99750.84;6105223;23;20576;-81
2023/03/11 10:21:38;;;;;;;3.40;3.30;;;;;;;5.40;54.90;99824.75;6084440;23;20462;-82
2023/03/11 10:24:32;;;;;;;3.30;3.15;;;;;;;5.33;55.27;99848.50;6108002;23;20025;-79
2023/03/11 10:27:07;;;;;;;3.30;3.20;;;;;;;4.11;56.00;99671.81;6110815;23;20034;-79
2023/03/11 10:29:50;;;;;;;3.50;3.20;;;;;;;4.61;56.14;99797.88;6082276;23;20041;-78
2023/03/11 10:32:23;;;;;;;7.47;3.30;;;;;;;3.03;56.62;99557.72;6101780;23;20034;-80
2023/03/11 10:34:57;;;;;;;3.20;3.10;;;;;;;2.72;57.46;99575.31;6107427;23;20021;-79
2023/03/11 10:37:26;;;;;;;3.30;3.20;;;;;;;4.45;57.11;99821.03;6086204;23;20154;-79
2023/03/11 10:40:29;;;;;;;3.70;3.50;;;;;;;4.23;56.34;99776.91;6088825;23;20260;-79
2023/03/11 10:42:59;;;;;;;3.80;3.42;;;;;;;4.05;56.48;99760.34;6082856;23;20547;-79
2023/03/11 10:45:30;;;;;;;3.55;3.42;;;;;;;4.39;54.26;99661.06;6113942;23;20010;-79
2023/03/11 10:47:57;;;;;;;3.13;3.03;;;;;;;5.04;52.14;99722.38;6092043;23;20038;-78
2023/03/11 10:50:23;;;;;;;7.78;3.47;;;;;;;4.70;52.13;99644.13;6110763;23;20034;-78
2023/03/11 10:53:09;;;;;;;3.20;3.10;;;;;;;4.31;50.59;99496.94;6077877;23;20033;-80
2023/03/11 10:55:45;;;;;;;3.30;3.20;;;;;;;4.71;52.47;99614.63;6087446;23;20041;-78
2023/03/11 10:58:14;;;;;;;3.20;3.10;;;;;;;5.08;51.26;99596.50;6087134;23;20393;-81
2023/03/11 11:00:41;;;;;;;6.38;3.33;;;;;;;5.37;51.75;99681.81;6110519;23;20039;-82
2023/03/11 11:03:22;;;;;;;3.90;3.67;;;;;;;4.80;51.42;99559.63;6115559;23;20079;-81
2023/03/11 11:06:02;;;;;;;3.80;3.50;;;;;;;5.22;51.17;99598.44;6109969;23;20110;-82
2023/03/11 11:08:29;;;;;;;3.38;3.28;;;;;;;3.83;51.43;99388.38;6087910;23;20081;-78
2023/03/11 11:10:58;;;;;;;3.30;3.15;;;;;;;4.74;51.21;99551.28;6112865;23;20021;-80
2023/03/11 11:13:29;;;;;;;3.47;3.38;;;;;;;4.88;51.29;99535.03;6051369;23;20102;-78
2023/03/11 11:16:15;;;;;;;8.00;3.80;;;;;;;5.53;51.53;99692.31;6112436;23;20518;-78
2023/03/11 11:18:44;;;;;;;3.58;3.38;;;;;;;5.06;51.38;99556.72;6113482;23;20025;-79
2023/03/11 11:21:36;;;;;;;3.10;3.00;;;;;;;5.43;50.75;99550.53;6086854;23;20014;-80
2023/03/11 11:24:13;;;;;;;3.88;3.67;;;;;;;3.86;50.29;99312.97;6104942;23;20169;-79
2023/03/11 11:26:39;;;;;;;7.72;3.40;;;;;;;2.75;51.81;99285.06;6059236;23;20596;-80
2023/03/11 11:29:08;;;;;;;3.30;3.20;;;;;;;4.03;52.10;99491.28;6111839;23;20059;-81
2023/03/11 11:31:39;;;;;;;3.10;3.00;;;;;;;4.44;53.20;99627.09;6082095;23;20489;-81